sensor_id;sensor_type;location;lat;lon;timestamp;P1;durP1;ratioP1;P2;durP2;ratioP2
25351;SDS011;13304;48.464;8.712;2022-09-17T00:01:25;2.30;;;0.80;;
25351;SDS011;13304;48.464;8.712;2022-09-17T00:03:56;1.42;;;0.80;;
25351;SDS011;13304;48.464;8.712;2022-09-17T00:06:31;1.48;;;0.75;;
25351;SDS011;13304;48.464;8.712;2022-09-17T00:11:28;0.77;;;0.57;;
25351;SDS011;13304;48.464;8.712;2022-09-17T00:13:57;1.60;;;0.80;;
25351;SDS011;13304;48.464;8.712;2022-09-17T00:16:43;2.35;;;0.70;;
25351;SDS011;13304;48.464;8.712;2022-09-17T00:19:15;2.25;;;0.60;;
25351;SDS011;13304;48.464;8.712;2022-09-17T00:21:43;2.30;;;0.73;;
25351;SDS011;13304;48.464;8.712;2022-09-17T00:24:09;4.95;;;0.93;;
25351;SDS011;13304;48.464;8.712;2022-09-17T00:26:36;1.60;;;0.93;;
25351;SDS011;13304;48.464;8.712;2022-09-17T00:29:03;2.22;;;0.68;;
25351;SDS011;13304;48.464;8.712;2022-09-17T00:31:30;1.48;;;0.75;;
25351;SDS011;13304;48.464;8.712;2022-09-17T00:33:56;1.42;;;0.80;;
25351;SDS011;13304;48.464;8.712;2022-09-17T00:36:23;2.15;;;0.80;;
25351;SDS011;13304;48.464;8.712;2022-09-17T00:38:50;2.25;;;0.70;;
25351;SDS011;13304;48.464;8.712;2022-09-17T00:41:17;1.48;;;0.70;;
25351;SDS011;13304;48.464;8.712;2022-09-17T00:43:48;1.73;;;0.80;;
25351;SDS011;13304;48.464;8.712;2022-09-17T00:48:42;3.38;;;1.00;;
25351;SDS011;13304;48.464;8.712;2022-09-17T00:51:09;4.90;;;1.00;;
25351;SDS011;13304;48.464;8.712;2022-09-17T00:53:36;1.75;;;0.85;;
25351;SDS011;13304;48.464;8.712;2022-09-17T00:56:06;1.35;;;0.73;;
25351;SDS011;13304;48.464;8.712;2022-09-17T00:58:38;4.05;;;0.80;;
25351;SDS011;13304;48.464;8.712;2022-09-17T01:01:04;5.10;;;0.82;;
25351;SDS011;13304;48.464;8.712;2022-09-17T01:03:31;4.25;;;0.85;;
25351;SDS011;13304;48.464;8.712;2022-09-17T01:38:48;0.75;;;0.55;;
25351;SDS011;13304;48.464;8.712;2022-09-17T01:44:28;2.28;;;0.90;;
25351;SDS011;13304;48.464;8.712;2022-09-17T01:47:17;1.75;;;0.70;;
25351;SDS011;13304;48.464;8.712;2022-09-17T01:49:52;4.35;;;0.80;;
25351;SDS011;13304;48.464;8.712;2022-09-17T01:52:23;2.35;;;0.80;;
25351;SDS011;13304;48.464;8.712;2022-09-17T01:54:53;3.80;;;0.80;;
25351;SDS011;13304;48.464;8.712;2022-09-17T01:57:23;1.25;;;0.65;;
25351;SDS011;13304;48.464;8.712;2022-09-17T01:59:56;2.75;;;0.85;;
25351;SDS011;13304;48.464;8.712;2022-09-17T02:07:53;1.33;;;0.70;;
25351;SDS011;13304;48.464;8.712;2022-09-17T02:10:27;2.25;;;0.73;;
25351;SDS011;13304;48.464;8.712;2022-09-17T02:12:58;1.00;;;0.65;;
25351;SDS011;13304;48.464;8.712;2022-09-17T02:15:38;1.90;;;0.80;;
25351;SDS011;13304;48.464;8.712;2022-09-17T02:18:14;5.40;;;0.80;;
25351;SDS011;13304;48.464;8.712;2022-09-17T02:21:09;2.10;;;0.85;;
25351;SDS011;13304;48.464;8.712;2022-09-17T02:23:56;1.58;;;0.73;;
25351;SDS011;13304;48.464;8.712;2022-09-17T02:26:33;2.80;;;0.90;;
25351;SDS011;13304;48.464;8.712;2022-09-17T02:29:04;1.20;;;0.80;;
25351;SDS011;13304;48.464;8.712;2022-09-17T02:31:33;1.15;;;0.70;;
25351;SDS011;13304;48.464;8.712;2022-09-17T02:34:00;4.43;;;0.80;;
25351;SDS011;13304;48.464;8.712;2022-09-17T02:36:29;1.92;;;0.63;;
25351;SDS011;13304;48.464;8.712;2022-09-17T02:38:59;3.30;;;0.80;;
25351;SDS011;13304;48.464;8.712;2022-09-17T02:42:30;4.68;;;0.90;;
25351;SDS011;13304;48.464;8.712;2022-09-17T02:44:44;2.00;;;0.95;;
25351;SDS011;13304;48.464;8.712;2022-09-17T02:47:26;2.78;;;0.80;;
25351;SDS011;13304;48.464;8.712;2022-09-17T02:55:35;2.83;;;0.70;;
25351;SDS011;13304;48.464;8.712;2022-09-17T02:58:11;1.67;;;0.90;;
25351;SDS011;13304;48.464;8.712;2022-09-17T03:00:51;3.15;;;1.02;;
25351;SDS011;13304;48.464;8.712;2022-09-17T03:03:34;3.65;;;0.90;;
25351;SDS011;13304;48.464;8.712;2022-09-17T03:06:05;2.03;;;0.80;;
25351;SDS011;13304;48.464;8.712;2022-09-17T03:08:32;3.03;;;1.00;;
25351;SDS011;13304;48.464;8.712;2022-09-17T03:11:01;3.22;;;0.88;;
25351;SDS011;13304;48.464;8.712;2022-09-17T03:13:29;2.60;;;1.00;;
25351;SDS011;13304;48.464;8.712;2022-09-17T03:15:55;4.43;;;1.10;;
25351;SDS011;13304;48.464;8.712;2022-09-17T03:18:21;3.83;;;1.25;;
25351;SDS011;13304;48.464;8.712;2022-09-17T03:20:47;6.65;;;1.08;;
25351;SDS011;13304;48.464;8.712;2022-09-17T03:23:13;4.03;;;1.23;;
25351;SDS011;13304;48.464;8.712;2022-09-17T03:25:39;3.50;;;1.05;;
25351;SDS011;13304;48.464;8.712;2022-09-17T03:28:05;2.47;;;1.10;;
25351;SDS011;13304;48.464;8.712;2022-09-17T03:30:31;2.88;;;1.33;;
25351;SDS011;13304;48.464;8.712;2022-09-17T03:32:56;2.28;;;1.40;;
25351;SDS011;13304;48.464;8.712;2022-09-17T03:35:22;5.28;;;1.30;;
25351;SDS011;13304;48.464;8.712;2022-09-17T03:37:48;3.47;;;1.23;;
25351;SDS011;13304;48.464;8.712;2022-09-17T03:40:13;3.45;;;1.05;;
25351;SDS011;13304;48.464;8.712;2022-09-17T03:42:39;1.70;;;1.02;;
25351;SDS011;13304;48.464;8.712;2022-09-17T03:45:05;4.30;;;1.05;;
25351;SDS011;13304;48.464;8.712;2022-09-17T03:47:32;3.75;;;1.02;;
25351;SDS011;13304;48.464;8.712;2022-09-17T03:49:57;4.10;;;0.93;;
25351;SDS011;13304;48.464;8.712;2022-09-17T03:52:23;2.42;;;0.80;;
25351;SDS011;13304;48.464;8.712;2022-09-17T03:54:49;1.10;;;0.80;;
25351;SDS011;13304;48.464;8.712;2022-09-17T03:57:15;2.38;;;0.93;;
25351;SDS011;13304;48.464;8.712;2022-09-17T03:59:41;2.45;;;0.90;;
25351;SDS011;13304;48.464;8.712;2022-09-17T04:02:06;4.13;;;1.10;;
25351;SDS011;13304;48.464;8.712;2022-09-17T04:04:32;3.90;;;0.82;;
25351;SDS011;13304;48.464;8.712;2022-09-17T04:06:59;1.40;;;0.90;;
25351;SDS011;13304;48.464;8.712;2022-09-17T04:09:25;2.88;;;1.20;;
25351;SDS011;13304;48.464;8.712;2022-09-17T04:11:50;2.83;;;1.08;;
25351;SDS011;13304;48.464;8.712;2022-09-17T04:14:16;3.67;;;0.80;;
25351;SDS011;13304;48.464;8.712;2022-09-17T04:16:42;2.78;;;1.10;;
25351;SDS011;13304;48.464;8.712;2022-09-17T04:19:09;3.50;;;0.70;;
25351;SDS011;13304;48.464;8.712;2022-09-17T04:21:34;1.20;;;0.80;;
25351;SDS011;13304;48.464;8.712;2022-09-17T04:24:00;4.57;;;0.85;;
25351;SDS011;13304;48.464;8.712;2022-09-17T04:26:26;5.07;;;0.80;;
25351;SDS011;13304;48.464;8.712;2022-09-17T04:28:52;2.05;;;0.88;;
25351;SDS011;13304;48.464;8.712;2022-09-17T04:31:17;2.97;;;0.93;;
25351;SDS011;13304;48.464;8.712;2022-09-17T04:33:43;4.57;;;1.00;;
25351;SDS011;13304;48.464;8.712;2022-09-17T04:36:09;3.08;;;0.90;;
25351;SDS011;13304;48.464;8.712;2022-09-17T04:38:35;1.98;;;0.80;;
25351;SDS011;13304;48.464;8.712;2022-09-17T04:41:00;4.57;;;0.85;;
25351;SDS011;13304;48.464;8.712;2022-09-17T04:43:26;2.00;;;0.70;;
25351;SDS011;13304;48.464;8.712;2022-09-17T04:45:52;5.00;;;1.13;;
25351;SDS011;13304;48.464;8.712;2022-09-17T04:48:17;4.10;;;0.90;;
25351;SDS011;13304;48.464;8.712;2022-09-17T04:50:44;2.28;;;0.60;;
25351;SDS011;13304;48.464;8.712;2022-09-17T04:53:11;3.42;;;1.05;;
25351;SDS011;13304;48.464;8.712;2022-09-17T04:55:37;1.63;;;0.70;;
25351;SDS011;13304;48.464;8.712;2022-09-17T04:58:02;3.83;;;1.20;;
25351;SDS011;13304;48.464;8.712;2022-09-17T05:00:28;3.35;;;0.90;;
25351;SDS011;13304;48.464;8.712;2022-09-17T05:02:54;4.00;;;1.00;;
25351;SDS011;13304;48.464;8.712;2022-09-17T05:05:21;3.13;;;0.73;;
25351;SDS011;13304;48.464;8.712;2022-09-17T05:07:48;4.80;;;0.70;;
25351;SDS011;13304;48.464;8.712;2022-09-17T05:10:14;2.85;;;0.93;;
25351;SDS011;13304;48.464;8.712;2022-09-17T05:12:46;5.00;;;1.35;;
25351;SDS011;13304;48.464;8.712;2022-09-17T05:15:16;7.93;;;1.58;;
25351;SDS011;13304;48.464;8.712;2022-09-17T05:17:42;2.97;;;0.95;;
25351;SDS011;13304;48.464;8.712;2022-09-17T05:20:08;4.63;;;1.08;;
25351;SDS011;13304;48.464;8.712;2022-09-17T05:22:34;4.50;;;1.08;;
25351;SDS011;13304;48.464;8.712;2022-09-17T05:25:00;5.32;;;1.00;;
25351;SDS011;13304;48.464;8.712;2022-09-17T05:27:25;8.23;;;1.67;;
25351;SDS011;13304;48.464;8.712;2022-09-17T05:29:51;4.60;;;1.20;;
25351;SDS011;13304;48.464;8.712;2022-09-17T05:32:17;3.47;;;1.20;;
25351;SDS011;13304;48.464;8.712;2022-09-17T05:34:43;2.90;;;1.17;;
25351;SDS011;13304;48.464;8.712;2022-09-17T05:37:09;4.05;;;1.40;;
25351;SDS011;13304;48.464;8.712;2022-09-17T05:39:35;3.50;;;1.50;;
25351;SDS011;13304;48.464;8.712;2022-09-17T05:42:01;4.40;;;1.20;;
25351;SDS011;13304;48.464;8.712;2022-09-17T05:44:27;3.78;;;1.23;;
25351;SDS011;13304;48.464;8.712;2022-09-17T05:46:53;12.63;;;1.48;;
25351;SDS011;13304;48.464;8.712;2022-09-17T05:49:19;3.70;;;1.20;;
25351;SDS011;13304;48.464;8.712;2022-09-17T05:51:45;2.78;;;1.10;;
25351;SDS011;13304;48.464;8.712;2022-09-17T05:54:10;5.05;;;1.30;;
25351;SDS011;13304;48.464;8.712;2022-09-17T05:56:36;6.05;;;1.27;;
25351;SDS011;13304;48.464;8.712;2022-09-17T05:59:02;4.57;;;1.33;;
25351;SDS011;13304;48.464;8.712;2022-09-17T06:01:28;5.55;;;1.52;;
25351;SDS011;13304;48.464;8.712;2022-09-17T06:03:54;6.43;;;1.50;;
25351;SDS011;13304;48.464;8.712;2022-09-17T06:06:20;8.07;;;1.42;;
25351;SDS011;13304;48.464;8.712;2022-09-17T06:08:45;6.80;;;1.50;;
25351;SDS011;13304;48.464;8.712;2022-09-17T06:11:14;6.15;;;1.60;;
25351;SDS011;13304;48.464;8.712;2022-09-17T06:13:39;4.55;;;1.27;;
25351;SDS011;13304;48.464;8.712;2022-09-17T06:16:07;4.72;;;1.30;;
25351;SDS011;13304;48.464;8.712;2022-09-17T06:18:33;5.18;;;1.25;;
25351;SDS011;13304;48.464;8.712;2022-09-17T06:21:00;5.35;;;1.27;;
25351;SDS011;13304;48.464;8.712;2022-09-17T06:23:27;4.53;;;1.20;;
25351;SDS011;13304;48.464;8.712;2022-09-17T06:25:59;2.63;;;1.10;;
25351;SDS011;13304;48.464;8.712;2022-09-17T06:28:26;6.53;;;1.08;;
25351;SDS011;13304;48.464;8.712;2022-09-17T06:30:52;5.97;;;1.27;;
25351;SDS011;13304;48.464;8.712;2022-09-17T06:33:20;6.18;;;1.23;;
25351;SDS011;13304;48.464;8.712;2022-09-17T06:35:46;4.10;;;1.13;;
25351;SDS011;13304;48.464;8.712;2022-09-17T06:38:12;4.30;;;1.10;;
25351;SDS011;13304;48.464;8.712;2022-09-17T06:40:38;4.93;;;1.40;;
25351;SDS011;13304;48.464;8.712;2022-09-17T06:43:04;4.85;;;1.10;;
25351;SDS011;13304;48.464;8.712;2022-09-17T06:45:30;3.92;;;1.10;;
25351;SDS011;13304;48.464;8.712;2022-09-17T06:47:55;3.05;;;1.30;;
25351;SDS011;13304;48.464;8.712;2022-09-17T06:50:22;8.15;;;1.35;;
25351;SDS011;13304;48.464;8.712;2022-09-17T06:52:52;6.00;;;1.45;;
25351;SDS011;13304;48.464;8.712;2022-09-17T06:55:19;4.80;;;1.20;;
25351;SDS011;13304;48.464;8.712;2022-09-17T06:57:45;8.63;;;1.40;;
25351;SDS011;13304;48.464;8.712;2022-09-17T07:00:12;5.63;;;1.50;;
25351;SDS011;13304;48.464;8.712;2022-09-17T07:02:39;5.35;;;1.40;;
25351;SDS011;13304;48.464;8.712;2022-09-17T07:05:05;6.57;;;1.40;;
25351;SDS011;13304;48.464;8.712;2022-09-17T07:07:31;7.20;;;1.52;;
25351;SDS011;13304;48.464;8.712;2022-09-17T07:09:59;7.05;;;1.40;;
25351;SDS011;13304;48.464;8.712;2022-09-17T07:12:26;6.75;;;1.30;;
25351;SDS011;13304;48.464;8.712;2022-09-17T07:14:51;10.68;;;2.08;;
25351;SDS011;13304;48.464;8.712;2022-09-17T07:17:17;5.32;;;1.20;;
25351;SDS011;13304;48.464;8.712;2022-09-17T07:19:43;2.42;;;0.90;;
25351;SDS011;13304;48.464;8.712;2022-09-17T07:22:09;4.80;;;1.20;;
25351;SDS011;13304;48.464;8.712;2022-09-17T07:24:34;4.47;;;1.00;;
25351;SDS011;13304;48.464;8.712;2022-09-17T07:27:00;6.97;;;1.48;;
25351;SDS011;13304;48.464;8.712;2022-09-17T07:29:26;4.30;;;1.10;;
25351;SDS011;13304;48.464;8.712;2022-09-17T07:31:54;3.15;;;1.17;;
25351;SDS011;13304;48.464;8.712;2022-09-17T07:34:22;3.15;;;1.02;;
25351;SDS011;13304;48.464;8.712;2022-09-17T07:36:48;4.35;;;1.27;;
25351;SDS011;13304;48.464;8.712;2022-09-17T07:39:13;4.13;;;1.10;;
25351;SDS011;13304;48.464;8.712;2022-09-17T07:41:39;3.08;;;1.17;;
25351;SDS011;13304;48.464;8.712;2022-09-17T07:44:06;4.10;;;1.27;;
25351;SDS011;13304;48.464;8.712;2022-09-17T07:46:33;5.87;;;1.37;;
25351;SDS011;13304;48.464;8.712;2022-09-17T07:48:59;5.13;;;0.93;;
25351;SDS011;13304;48.464;8.712;2022-09-17T07:51:26;5.65;;;1.20;;
25351;SDS011;13304;48.464;8.712;2022-09-17T07:56:22;2.40;;;0.80;;
25351;SDS011;13304;48.464;8.712;2022-09-17T07:58:48;3.95;;;1.08;;
25351;SDS011;13304;48.464;8.712;2022-09-17T08:01:14;5.22;;;1.30;;
25351;SDS011;13304;48.464;8.712;2022-09-17T08:03:41;3.38;;;1.02;;
25351;SDS011;13304;48.464;8.712;2022-09-17T08:06:12;3.20;;;1.05;;
25351;SDS011;13304;48.464;8.712;2022-09-17T08:08:39;4.25;;;1.17;;
25351;SDS011;13304;48.464;8.712;2022-09-17T08:13:33;4.50;;;1.20;;
25351;SDS011;13304;48.464;8.712;2022-09-17T08:15:59;7.57;;;1.10;;
25351;SDS011;13304;48.464;8.712;2022-09-17T08:18:30;4.97;;;0.90;;
25351;SDS011;13304;48.464;8.712;2022-09-17T08:20:59;5.38;;;1.27;;
25351;SDS011;13304;48.464;8.712;2022-09-17T08:23:28;2.17;;;0.88;;
25351;SDS011;13304;48.464;8.712;2022-09-17T08:25:55;4.63;;;0.88;;
25351;SDS011;13304;48.464;8.712;2022-09-17T08:28:23;4.35;;;0.90;;
25351;SDS011;13304;48.464;8.712;2022-09-17T08:30:50;3.47;;;1.00;;
25351;SDS011;13304;48.464;8.712;2022-09-17T08:33:16;3.72;;;1.20;;
25351;SDS011;13304;48.464;8.712;2022-09-17T08:35:49;3.78;;;1.00;;
25351;SDS011;13304;48.464;8.712;2022-09-17T08:38:19;2.35;;;0.77;;
25351;SDS011;13304;48.464;8.712;2022-09-17T08:41:20;1.88;;;0.80;;
25351;SDS011;13304;48.464;8.712;2022-09-17T08:46:48;1.05;;;0.50;;
25351;SDS011;13304;48.464;8.712;2022-09-17T08:55:17;1.48;;;0.70;;
25351;SDS011;13304;48.464;8.712;2022-09-17T08:57:57;1.38;;;0.70;;
25351;SDS011;13304;48.464;8.712;2022-09-17T09:00:25;2.40;;;0.65;;
25351;SDS011;13304;48.464;8.712;2022-09-17T09:05:51;3.03;;;0.90;;
25351;SDS011;13304;48.464;8.712;2022-09-17T09:10:54;2.22;;;0.68;;
25351;SDS011;13304;48.464;8.712;2022-09-17T09:13:22;1.40;;;0.60;;
25351;SDS011;13304;48.464;8.712;2022-09-17T09:15:58;5.78;;;0.88;;
25351;SDS011;13304;48.464;8.712;2022-09-17T09:18:28;2.38;;;0.95;;
25351;SDS011;13304;48.464;8.712;2022-09-17T09:24:21;4.88;;;1.00;;
25351;SDS011;13304;48.464;8.712;2022-09-17T09:26:31;4.38;;;1.02;;
25351;SDS011;13304;48.464;8.712;2022-09-17T09:31:46;4.95;;;0.93;;
25351;SDS011;13304;48.464;8.712;2022-09-17T09:34:25;4.05;;;1.00;;
25351;SDS011;13304;48.464;8.712;2022-09-17T09:36:54;4.20;;;1.23;;
25351;SDS011;13304;48.464;8.712;2022-09-17T09:39:36;4.93;;;1.05;;
25351;SDS011;13304;48.464;8.712;2022-09-17T09:42:04;4.43;;;1.05;;
25351;SDS011;13304;48.464;8.712;2022-09-17T09:44:40;5.25;;;1.15;;
25351;SDS011;13304;48.464;8.712;2022-09-17T09:50:10;10.05;;;1.58;;
25351;SDS011;13304;48.464;8.712;2022-09-17T09:58:35;7.53;;;1.60;;
25351;SDS011;13304;48.464;8.712;2022-09-17T10:01:13;9.27;;;1.77;;
25351;SDS011;13304;48.464;8.712;2022-09-17T10:03:41;9.63;;;1.42;;
25351;SDS011;13304;48.464;8.712;2022-09-17T10:06:10;4.22;;;1.38;;
25351;SDS011;13304;48.464;8.712;2022-09-17T10:11:29;7.30;;;1.27;;
25351;SDS011;13304;48.464;8.712;2022-09-17T10:17:33;5.53;;;1.63;;
25351;SDS011;13304;48.464;8.712;2022-09-17T10:19:41;7.40;;;1.30;;
25351;SDS011;13304;48.464;8.712;2022-09-17T10:27:24;5.25;;;1.38;;
25351;SDS011;13304;48.464;8.712;2022-09-17T10:29:53;4.93;;;1.40;;
25351;SDS011;13304;48.464;8.712;2022-09-17T10:32:27;5.50;;;1.80;;
25351;SDS011;13304;48.464;8.712;2022-09-17T10:37:40;4.00;;;1.30;;
25351;SDS011;13304;48.464;8.712;2022-09-17T10:42:42;5.35;;;1.10;;
25351;SDS011;13304;48.464;8.712;2022-09-17T10:47:47;9.90;;;1.63;;
25351;SDS011;13304;48.464;8.712;2022-09-17T10:50:17;7.13;;;1.42;;
25351;SDS011;13304;48.464;8.712;2022-09-17T10:52:49;7.30;;;1.40;;
25351;SDS011;13304;48.464;8.712;2022-09-17T11:00:36;6.53;;;1.60;;
25351;SDS011;13304;48.464;8.712;2022-09-17T11:08:57;4.95;;;1.48;;
25351;SDS011;13304;48.464;8.712;2022-09-17T11:11:33;6.28;;;1.63;;
25351;SDS011;13304;48.464;8.712;2022-09-17T11:22:29;4.57;;;1.42;;
25351;SDS011;13304;48.464;8.712;2022-09-17T11:28:31;5.28;;;1.25;;
25351;SDS011;13304;48.464;8.712;2022-09-17T11:42:33;4.63;;;1.27;;
25351;SDS011;13304;48.464;8.712;2022-09-17T11:45:05;3.50;;;1.10;;
25351;SDS011;13304;48.464;8.712;2022-09-17T11:48:03;4.78;;;1.25;;
25351;SDS011;13304;48.464;8.712;2022-09-17T11:50:40;3.55;;;1.20;;
25351;SDS011;13304;48.464;8.712;2022-09-17T11:55:54;9.57;;;1.65;;
25351;SDS011;13304;48.464;8.712;2022-09-17T11:58:33;3.10;;;1.17;;
25351;SDS011;13304;48.464;8.712;2022-09-17T12:01:32;4.63;;;1.38;;
25351;SDS011;13304;48.464;8.712;2022-09-17T12:06:41;8.85;;;1.17;;
25351;SDS011;13304;48.464;8.712;2022-09-17T12:09:16;3.05;;;0.90;;
25351;SDS011;13304;48.464;8.712;2022-09-17T12:14:57;2.25;;;0.90;;
25351;SDS011;13304;48.464;8.712;2022-09-17T12:17:33;4.60;;;1.38;;
25351;SDS011;13304;48.464;8.712;2022-09-17T12:20:06;3.55;;;1.13;;
25351;SDS011;13304;48.464;8.712;2022-09-17T12:22:41;3.15;;;1.00;;
25351;SDS011;13304;48.464;8.712;2022-09-17T12:25:12;3.22;;;1.00;;
25351;SDS011;13304;48.464;8.712;2022-09-17T12:30:30;4.50;;;1.10;;
25351;SDS011;13304;48.464;8.712;2022-09-17T12:33:21;4.18;;;1.20;;
25351;SDS011;13304;48.464;8.712;2022-09-17T13:14:40;3.85;;;1.25;;
25351;SDS011;13304;48.464;8.712;2022-09-17T13:17:32;2.58;;;1.00;;
25351;SDS011;13304;48.464;8.712;2022-09-17T13:20:10;3.95;;;1.00;;
25351;SDS011;13304;48.464;8.712;2022-09-17T13:22:44;3.15;;;0.98;;
25351;SDS011;13304;48.464;8.712;2022-09-17T13:25:13;3.22;;;1.10;;
25351;SDS011;13304;48.464;8.712;2022-09-17T13:27:41;3.65;;;1.10;;
25351;SDS011;13304;48.464;8.712;2022-09-17T13:30:09;4.00;;;1.35;;
25351;SDS011;13304;48.464;8.712;2022-09-17T13:37:39;4.40;;;1.00;;
25351;SDS011;13304;48.464;8.712;2022-09-17T13:40:28;3.80;;;1.05;;
25351;SDS011;13304;48.464;8.712;2022-09-17T13:45:22;2.97;;;1.00;;
25351;SDS011;13304;48.464;8.712;2022-09-17T13:50:25;4.30;;;1.60;;
25351;SDS011;13304;48.464;8.712;2022-09-17T13:52:57;4.70;;;1.30;;
25351;SDS011;13304;48.464;8.712;2022-09-17T13:58:07;2.60;;;0.90;;
25351;SDS011;13304;48.464;8.712;2022-09-17T14:05:54;4.18;;;1.20;;
25351;SDS011;13304;48.464;8.712;2022-09-17T14:13:51;0.95;;;0.65;;
25351;SDS011;13304;48.464;8.712;2022-09-17T14:22:23;0.95;;;0.57;;
25351;SDS011;13304;48.464;8.712;2022-09-17T14:24:51;1.27;;;0.60;;
25351;SDS011;13304;48.464;8.712;2022-09-17T14:38:10;1.58;;;0.90;;
25351;SDS011;13304;48.464;8.712;2022-09-17T14:40:44;2.10;;;1.10;;
25351;SDS011;13304;48.464;8.712;2022-09-17T14:43:23;1.73;;;0.95;;
25351;SDS011;13304;48.464;8.712;2022-09-17T14:46:01;1.95;;;0.75;;
25351;SDS011;13304;48.464;8.712;2022-09-17T14:48:32;2.30;;;0.90;;
25351;SDS011;13304;48.464;8.712;2022-09-17T14:54:05;2.10;;;0.80;;
25351;SDS011;13304;48.464;8.712;2022-09-17T14:56:41;3.00;;;1.20;;
25351;SDS011;13304;48.464;8.712;2022-09-17T14:59:22;3.13;;;0.90;;
25351;SDS011;13304;48.464;8.712;2022-09-17T15:01:53;3.15;;;1.10;;
25351;SDS011;13304;48.464;8.712;2022-09-17T15:04:20;3.40;;;1.27;;
25351;SDS011;13304;48.464;8.712;2022-09-17T15:06:47;3.35;;;1.00;;
25351;SDS011;13304;48.464;8.712;2022-09-17T15:09:32;5.60;;;1.40;;
25351;SDS011;13304;48.464;8.712;2022-09-17T15:11:58;5.15;;;1.60;;
25351;SDS011;13304;48.464;8.712;2022-09-17T15:14:28;3.70;;;1.30;;
25351;SDS011;13304;48.464;8.712;2022-09-17T15:16:56;3.75;;;1.15;;
25351;SDS011;13304;48.464;8.712;2022-09-17T15:19:31;3.63;;;1.20;;
25351;SDS011;13304;48.464;8.712;2022-09-17T15:27:33;3.92;;;1.48;;
25351;SDS011;13304;48.464;8.712;2022-09-17T15:32:51;6.28;;;1.70;;
25351;SDS011;13304;48.464;8.712;2022-09-17T15:37:48;3.78;;;1.10;;
25351;SDS011;13304;48.464;8.712;2022-09-17T15:40:29;4.47;;;1.10;;
25351;SDS011;13304;48.464;8.712;2022-09-17T15:45:32;4.55;;;1.00;;
25351;SDS011;13304;48.464;8.712;2022-09-17T15:48:03;3.20;;;1.35;;
25351;SDS011;13304;48.464;8.712;2022-09-17T15:50:31;2.50;;;1.10;;
25351;SDS011;13304;48.464;8.712;2022-09-17T15:58:18;3.22;;;0.98;;
25351;SDS011;13304;48.464;8.712;2022-09-17T16:00:51;1.92;;;0.82;;
25351;SDS011;13304;48.464;8.712;2022-09-17T16:08:44;1.25;;;0.68;;
25351;SDS011;13304;48.464;8.712;2022-09-17T16:11:18;2.65;;;1.00;;
25351;SDS011;13304;48.464;8.712;2022-09-17T16:13:46;7.60;;;1.10;;
25351;SDS011;13304;48.464;8.712;2022-09-17T16:16:16;1.85;;;0.80;;
25351;SDS011;13304;48.464;8.712;2022-09-17T16:18:47;0.85;;;0.60;;
25351;SDS011;13304;48.464;8.712;2022-09-17T16:21:14;1.23;;;0.60;;
25351;SDS011;13304;48.464;8.712;2022-09-17T16:23:41;2.42;;;0.85;;
25351;SDS011;13304;48.464;8.712;2022-09-17T16:26:09;4.90;;;0.95;;
25351;SDS011;13304;48.464;8.712;2022-09-17T16:28:40;4.75;;;1.10;;
25351;SDS011;13304;48.464;8.712;2022-09-17T16:31:07;1.83;;;0.90;;
25351;SDS011;13304;48.464;8.712;2022-09-17T16:33:36;4.30;;;0.88;;
25351;SDS011;13304;48.464;8.712;2022-09-17T16:36:02;2.35;;;1.10;;
25351;SDS011;13304;48.464;8.712;2022-09-17T16:38:28;3.30;;;1.08;;
25351;SDS011;13304;48.464;8.712;2022-09-17T16:40:54;1.70;;;0.80;;
25351;SDS011;13304;48.464;8.712;2022-09-17T16:43:20;5.28;;;1.30;;
25351;SDS011;13304;48.464;8.712;2022-09-17T16:48:29;2.03;;;0.98;;
25351;SDS011;13304;48.464;8.712;2022-09-17T16:50:55;3.20;;;1.30;;
25351;SDS011;13304;48.464;8.712;2022-09-17T16:53:21;7.63;;;1.10;;
25351;SDS011;13304;48.464;8.712;2022-09-17T16:55:48;2.72;;;1.00;;
25351;SDS011;13304;48.464;8.712;2022-09-17T16:58:14;2.78;;;1.25;;
25351;SDS011;13304;48.464;8.712;2022-09-17T17:00:42;3.78;;;1.25;;
25351;SDS011;13304;48.464;8.712;2022-09-17T17:03:11;3.30;;;1.48;;
25351;SDS011;13304;48.464;8.712;2022-09-17T17:05:38;4.10;;;1.20;;
25351;SDS011;13304;48.464;8.712;2022-09-17T17:08:05;3.40;;;1.23;;
25351;SDS011;13304;48.464;8.712;2022-09-17T17:10:31;3.70;;;1.35;;
25351;SDS011;13304;48.464;8.712;2022-09-17T17:12:58;5.22;;;1.20;;
25351;SDS011;13304;48.464;8.712;2022-09-17T17:15:23;4.22;;;1.10;;
25351;SDS011;13304;48.464;8.712;2022-09-17T17:17:49;3.65;;;1.17;;
25351;SDS011;13304;48.464;8.712;2022-09-17T17:20:15;5.00;;;1.10;;
25351;SDS011;13304;48.464;8.712;2022-09-17T17:22:41;4.65;;;1.00;;
25351;SDS011;13304;48.464;8.712;2022-09-17T17:25:08;5.93;;;1.35;;
25351;SDS011;13304;48.464;8.712;2022-09-17T17:27:35;4.25;;;1.20;;
25351;SDS011;13304;48.464;8.712;2022-09-17T17:30:03;2.00;;;0.98;;
25351;SDS011;13304;48.464;8.712;2022-09-17T17:32:31;3.42;;;1.10;;
25351;SDS011;13304;48.464;8.712;2022-09-17T17:35:00;5.50;;;1.15;;
25351;SDS011;13304;48.464;8.712;2022-09-17T17:37:27;3.38;;;1.00;;
25351;SDS011;13304;48.464;8.712;2022-09-17T17:39:53;4.13;;;1.17;;
25351;SDS011;13304;48.464;8.712;2022-09-17T17:42:19;1.40;;;1.02;;
25351;SDS011;13304;48.464;8.712;2022-09-17T17:44:45;7.10;;;0.93;;
25351;SDS011;13304;48.464;8.712;2022-09-17T17:47:14;3.97;;;0.90;;
25351;SDS011;13304;48.464;8.712;2022-09-17T17:49:40;1.75;;;0.80;;
25351;SDS011;13304;48.464;8.712;2022-09-17T17:52:05;2.97;;;0.80;;
25351;SDS011;13304;48.464;8.712;2022-09-17T17:54:31;2.15;;;0.70;;
25351;SDS011;13304;48.464;8.712;2022-09-17T17:56:57;1.05;;;0.70;;
25351;SDS011;13304;48.464;8.712;2022-09-17T17:59:23;4.20;;;0.88;;
25351;SDS011;13304;48.464;8.712;2022-09-17T18:01:48;5.28;;;0.90;;
25351;SDS011;13304;48.464;8.712;2022-09-17T18:04:14;1.65;;;0.73;;
25351;SDS011;13304;48.464;8.712;2022-09-17T18:06:40;4.55;;;0.65;;
25351;SDS011;13304;48.464;8.712;2022-09-17T18:09:06;1.60;;;0.70;;
25351;SDS011;13304;48.464;8.712;2022-09-17T18:11:32;1.83;;;0.80;;
25351;SDS011;13304;48.464;8.712;2022-09-17T18:14:02;1.25;;;0.55;;
25351;SDS011;13304;48.464;8.712;2022-09-17T18:16:28;2.90;;;0.90;;
25351;SDS011;13304;48.464;8.712;2022-09-17T18:18:55;2.50;;;0.77;;
25351;SDS011;13304;48.464;8.712;2022-09-17T18:21:22;2.10;;;0.85;;
25351;SDS011;13304;48.464;8.712;2022-09-17T18:23:49;2.63;;;0.90;;
25351;SDS011;13304;48.464;8.712;2022-09-17T18:26:16;1.08;;;0.75;;
25351;SDS011;13304;48.464;8.712;2022-09-17T18:28:43;3.67;;;0.80;;
25351;SDS011;13304;48.464;8.712;2022-09-17T18:31:18;1.80;;;0.60;;
25351;SDS011;13304;48.464;8.712;2022-09-17T18:33:46;2.63;;;0.77;;
25351;SDS011;13304;48.464;8.712;2022-09-17T18:36:13;4.90;;;0.77;;
25351;SDS011;13304;48.464;8.712;2022-09-17T18:38:39;1.95;;;0.50;;
25351;SDS011;13304;48.464;8.712;2022-09-17T18:41:05;1.70;;;0.60;;
25351;SDS011;13304;48.464;8.712;2022-09-17T18:43:33;1.27;;;0.60;;
25351;SDS011;13304;48.464;8.712;2022-09-17T18:45:58;1.33;;;0.50;;
25351;SDS011;13304;48.464;8.712;2022-09-17T18:48:25;1.50;;;0.55;;
25351;SDS011;13304;48.464;8.712;2022-09-17T18:51:01;2.50;;;0.50;;
25351;SDS011;13304;48.464;8.712;2022-09-17T18:53:29;1.35;;;0.60;;
25351;SDS011;13304;48.464;8.712;2022-09-17T18:55:58;1.50;;;0.57;;
25351;SDS011;13304;48.464;8.712;2022-09-17T18:58:36;1.10;;;0.50;;
25351;SDS011;13304;48.464;8.712;2022-09-17T19:01:05;2.80;;;0.80;;
25351;SDS011;13304;48.464;8.712;2022-09-17T19:03:31;1.70;;;0.60;;
25351;SDS011;13304;48.464;8.712;2022-09-17T19:05:58;1.30;;;0.70;;
25351;SDS011;13304;48.464;8.712;2022-09-17T19:08:24;2.55;;;0.80;;
25351;SDS011;13304;48.464;8.712;2022-09-17T19:10:50;2.00;;;0.60;;
25351;SDS011;13304;48.464;8.712;2022-09-17T19:13:16;1.27;;;0.50;;
25351;SDS011;13304;48.464;8.712;2022-09-17T19:15:42;2.50;;;0.73;;
25351;SDS011;13304;48.464;8.712;2022-09-17T19:18:08;1.55;;;0.60;;
25351;SDS011;13304;48.464;8.712;2022-09-17T19:20:34;3.47;;;0.77;;